createdAt,value
2023-02-02T00:01:35.694Z,100013.28
2023-02-02T00:04:38.803Z,100018.97
2023-02-02T00:07:41.304Z,100012.00
2023-02-02T00:10:45.352Z,100015.34
2023-02-02T00:13:47.918Z,100007.56
2023-02-02T00:16:53.071Z,100015.50
2023-02-02T00:19:55.632Z,100020.81
2023-02-02T00:22:58.736Z,100016.37
2023-02-02T00:26:01.314Z,100023.81
2023-02-02T00:29:05.538Z,100018.97
2023-02-02T00:32:08.077Z,100005.28
2023-02-02T00:35:11.186Z,100015.41
2023-02-02T00:38:14.336Z,99981.81
2023-02-02T00:41:17.580Z,99948.16
2023-02-02T00:44:38.590Z,99941.19
2023-02-02T00:47:50.512Z,99941.19
2023-02-02T00:50:53.791Z,99936.19
2023-02-02T00:53:56.924Z,99940.41
2023-02-02T00:56:59.602Z,99963.81
2023-02-02T01:00:04.210Z,99967.84
2023-02-02T01:03:07.127Z,99977.56
2023-02-02T01:06:10.631Z,99987.34
2023-02-02T01:09:13.327Z,99978.72
2023-02-02T01:12:16.546Z,99997.31
2023-02-02T01:15:19.631Z,99982.44
2023-02-02T01:18:22.804Z,99979.84
2023-02-02T01:21:26.232Z,99958.03
2023-02-02T01:24:29.353Z,99964.50
2023-02-02T01:27:32.005Z,99958.75
2023-02-02T01:30:35.114Z,99967.09
2023-02-02T01:33:38.425Z,99976.47
2023-02-02T01:36:41.626Z,99980.50
2023-02-02T01:39:44.273Z,99997.47
2023-02-02T01:42:47.353Z,100000.22
2023-02-02T01:45:51.337Z,99994.66
2023-02-02T01:49:14.556Z,99996.44
2023-02-02T01:52:20.896Z,99976.00
2023-02-02T01:55:26.725Z,99966.62
2023-02-02T01:58:34.459Z,99974.53
2023-02-02T02:01:37.601Z,99962.75
2023-02-02T02:04:42.393Z,99960.50
2023-02-02T02:07:48.410Z,99958.44
2023-02-02T02:10:51.740Z,99948.84
2023-02-02T02:14:15.976Z,99942.06
2023-02-02T02:17:44.897Z,99938.03
2023-02-02T02:21:32.301Z,99931.87
2023-02-02T02:25:12.486Z,99930.28
2023-02-02T02:28:34.693Z,99938.97
2023-02-02T02:31:46.369Z,99928.22
2023-02-02T02:35:29.142Z,99927.75
2023-02-02T02:38:44.239Z,99932.19
2023-02-02T02:41:51.617Z,99958.03
2023-02-02T02:44:56.567Z,99955.16
2023-02-02T02:47:59.932Z,99967.50
2023-02-02T02:51:29.910Z,99963.03
2023-02-02T02:54:45.665Z,99973.31
2023-02-02T02:58:09.931Z,99977.03
2023-02-02T03:01:30.270Z,99981.72
2023-02-02T03:05:19.835Z,99980.25
2023-02-02T03:08:38.000Z,99974.78
2023-02-02T03:11:41.377Z,99968.31
2023-02-02T03:14:44.267Z,99977.13
2023-02-02T03:17:49.312Z,99983.06
2023-02-02T03:20:52.136Z,99970.87
2023-02-02T03:23:54.995Z,99978.87
2023-02-02T03:26:57.977Z,99965.81
2023-02-02T03:30:01.192Z,99975.91
2023-02-02T03:33:05.448Z,99978.75
2023-02-02T03:36:08.968Z,99981.88
2023-02-02T03:39:11.648Z,99969.03
2023-02-02T03:42:14.563Z,99971.53
2023-02-02T03:45:17.943Z,99975.97
2023-02-02T03:48:20.728Z,99951.41
2023-02-02T03:51:23.603Z,99964.16
2023-02-02T03:54:27.551Z,99974.03
2023-02-02T03:57:30.816Z,99980.75
2023-02-02T04:00:33.903Z,99961.88
2023-02-02T04:03:37.112Z,99956.06
2023-02-02T04:06:39.927Z,99962.25
2023-02-02T04:09:43.009Z,99939.56
2023-02-02T04:12:45.632Z,99924.72
2023-02-02T04:15:56.057Z,99932.37
2023-02-02T04:18:58.636Z,99929.84
2023-02-02T04:22:01.750Z,99927.47
2023-02-02T04:25:04.673Z,99945.38
2023-02-02T04:28:07.622Z,99947.22
2023-02-02T04:31:10.178Z,99950.47
2023-02-02T04:34:13.302Z,99952.50
2023-02-02T04:37:15.847Z,99960.31
2023-02-02T04:40:19.394Z,99950.94
2023-02-02T04:43:21.939Z,99949.78
2023-02-02T04:46:26.613Z,99955.72
2023-02-02T04:49:29.162Z,99973.03
2023-02-02T04:52:32.344Z,99977.91
2023-02-02T04:55:38.922Z,99972.56
2023-02-02T04:58:45.036Z,99967.69
2023-02-02T05:01:48.283Z,99973.44
2023-02-02T05:04:51.431Z,99976.31
2023-02-02T05:07:54.077Z,99977.63
2023-02-02T05:10:57.184Z,99987.19
2023-02-02T05:13:59.765Z,99985.66
2023-02-02T05:17:02.905Z,99997.03
2023-02-02T05:20:05.706Z,100010.56
2023-02-02T05:23:08.789Z,100022.28
2023-02-02T05:26:22.331Z,100041.53
2023-02-02T05:29:25.675Z,100041.28
2023-02-02T05:32:31.326Z,100049.34
2023-02-02T05:35:34.530Z,100064.75
2023-02-02T05:38:37.137Z,100075.00
2023-02-02T05:41:40.304Z,100074.09
2023-02-02T05:44:42.843Z,100075.97
2023-02-02T05:47:45.989Z,100067.16
2023-02-02T05:51:05.533Z,100079.06
2023-02-02T05:54:08.931Z,100073.22
2023-02-02T05:57:12.186Z,100075.34
2023-02-02T06:00:15.703Z,100081.37
2023-02-02T06:03:18.633Z,100077.03
2023-02-02T06:06:21.478Z,100076.50
2023-02-02T06:09:25.286Z,100065.56
2023-02-02T06:12:28.292Z,100059.94
2023-02-02T06:15:33.002Z,100061.37
2023-02-02T06:18:36.869Z,100059.94
2023-02-02T06:21:39.697Z,100062.25
2023-02-02T06:24:42.802Z,100060.59
2023-02-02T06:27:46.341Z,100058.78
2023-02-02T06:30:49.257Z,100060.75
2023-02-02T06:33:56.860Z,100060.41
2023-02-02T06:36:59.692Z,100056.12
2023-02-02T06:40:07.392Z,100052.75
2023-02-02T06:43:11.557Z,100047.13
2023-02-02T06:46:15.109Z,100053.06
2023-02-02T06:49:18.004Z,100043.28
2023-02-02T06:52:20.895Z,100048.28
2023-02-02T06:55:23.989Z,100055.94
2023-02-02T06:58:27.997Z,100051.50
2023-02-02T07:01:30.965Z,100055.66
2023-02-02T07:04:33.836Z,100061.19
2023-02-02T07:07:36.728Z,100077.41
2023-02-02T07:11:14.235Z,100070.06
2023-02-02T07:14:05.075Z,100073.41
2023-02-02T07:17:07.993Z,100088.69
2023-02-02T07:20:11.483Z,100092.22
2023-02-02T07:23:14.255Z,100103.22
2023-02-02T07:26:19.330Z,100121.41
2023-02-02T07:29:22.339Z,100136.13
2023-02-02T07:32:26.513Z,100132.16
2023-02-02T07:35:29.412Z,100139.13
2023-02-02T07:38:34.636Z,100133.53
2023-02-02T07:41:37.698Z,100138.25
2023-02-02T07:44:49.243Z,100139.91
2023-02-02T07:47:59.533Z,100137.00
2023-02-02T07:51:06.234Z,100140.34
2023-02-02T07:54:09.746Z,100143.50
2023-02-02T07:57:13.828Z,100129.09
2023-02-02T08:00:17.135Z,100134.66
2023-02-02T08:03:21.010Z,100128.66
2023-02-02T08:06:28.527Z,100118.63
2023-02-02T08:09:33.080Z,100119.38
2023-02-02T08:12:35.606Z,100129.94
2023-02-02T08:15:38.726Z,100114.41
2023-02-02T08:18:42.280Z,100122.56
2023-02-02T08:21:45.477Z,100107.56
2023-02-02T08:24:48.167Z,100125.06
2023-02-02T08:27:55.598Z,100121.91
2023-02-02T08:31:04.581Z,100112.00
2023-02-02T08:34:07.852Z,100110.09
2023-02-02T08:37:10.559Z,100100.41
2023-02-02T08:40:13.810Z,100093.50
2023-02-02T08:43:17.348Z,100085.22
2023-02-02T08:46:21.587Z,100078.72
2023-02-02T08:49:25.141Z,100094.66
2023-02-02T08:52:28.408Z,100095.19
2023-02-02T08:55:33.674Z,100090.81
2023-02-02T08:58:37.400Z,100116.84
2023-02-02T09:01:40.107Z,100118.69
2023-02-02T09:04:45.690Z,100134.12
2023-02-02T09:07:49.330Z,100133.19
2023-02-02T09:10:56.865Z,100136.97
2023-02-02T09:14:02.216Z,100138.97
2023-02-02T09:17:05.402Z,100147.78
2023-02-02T09:20:08.417Z,100147.75
2023-02-02T09:23:12.801Z,100151.53
2023-02-02T09:26:17.493Z,100155.13
2023-02-02T09:29:21.378Z,100158.28
2023-02-02T09:32:23.992Z,100145.37
2023-02-02T09:35:27.562Z,100157.62
2023-02-02T09:38:30.257Z,100154.91
2023-02-02T09:41:33.257Z,100147.97
2023-02-02T09:44:58.069Z,100148.28
2023-02-02T09:48:07.476Z,100154.78
2023-02-02T09:51:15.993Z,100147.22
2023-02-02T09:54:50.244Z,100153.75
2023-02-02T09:58:01.759Z,100161.88
2023-02-02T10:01:10.320Z,100156.94
2023-02-02T10:04:24.833Z,100174.44
2023-02-02T10:07:35.129Z,100171.88
2023-02-02T10:10:43.536Z,100177.84
2023-02-02T10:13:48.898Z,100185.53
2023-02-02T10:16:54.967Z,100180.91
2023-02-02T10:20:06.711Z,100177.84
2023-02-02T10:23:40.289Z,100176.72
2023-02-02T10:26:48.740Z,100175.72
2023-02-02T10:30:00.189Z,100165.00
2023-02-02T10:33:03.561Z,100149.69
2023-02-02T10:36:22.807Z,100158.63
2023-02-02T10:40:04.357Z,100167.91
2023-02-02T10:43:52.538Z,100160.81
2023-02-02T10:46:58.589Z,100151.81
2023-02-02T10:50:13.562Z,100142.78
2023-02-02T10:53:17.046Z,100113.31
2023-02-02T10:56:26.741Z,100126.28
2023-02-02T10:59:59.602Z,100108.34
2023-02-02T11:03:04.819Z,100104.84
2023-02-02T11:06:27.624Z,100104.19
2023-02-02T11:09:39.663Z,100112.09
2023-02-02T11:12:50.124Z,100116.50
2023-02-02T11:16:15.621Z,100099.84
2023-02-02T11:19:19.724Z,100128.63
2023-02-02T11:22:28.189Z,100118.28
2023-02-02T11:25:33.972Z,100107.78
2023-02-02T11:28:37.427Z,100115.75
2023-02-02T11:31:40.370Z,100125.41
2023-02-02T11:34:43.640Z,100130.72
2023-02-02T11:37:57.490Z,100135.69
2023-02-02T11:41:11.124Z,100125.66
2023-02-02T11:44:40.396Z,100147.16
2023-02-02T11:47:45.733Z,100156.25
2023-02-02T11:50:51.466Z,100148.09
2023-02-02T11:54:17.657Z,100158.66
2023-02-02T11:57:25.537Z,100168.38
2023-02-02T12:00:28.802Z,100179.84
2023-02-02T12:03:38.188Z,100174.53
2023-02-02T12:06:41.011Z,100179.53
2023-02-02T12:09:44.448Z,100178.94
2023-02-02T12:12:56.251Z,100168.41
2023-02-02T12:16:28.292Z,100168.78
2023-02-02T12:20:02.447Z,100179.91
2023-02-02T12:23:14.632Z,100174.38
2023-02-02T12:26:30.756Z,100168.66
2023-02-02T12:30:31.129Z,100180.19
2023-02-02T12:33:33.612Z,100172.47
2023-02-02T12:37:04.475Z,100177.91
2023-02-02T12:40:22.398Z,100173.81
2023-02-02T12:43:40.952Z,100175.59
2023-02-02T12:46:57.112Z,100176.37
2023-02-02T12:50:31.225Z,100167.84
2023-02-02T12:54:34.782Z,100174.31
2023-02-02T12:57:32.807Z,100171.28
2023-02-02T13:01:00.044Z,100179.63
2023-02-02T13:08:06.248Z,100184.88
2023-02-02T13:11:32.902Z,100190.56
2023-02-02T13:14:38.280Z,100181.47
2023-02-02T13:17:55.093Z,100190.34
2023-02-02T13:21:05.130Z,100192.91
2023-02-02T13:24:15.991Z,100194.06
2023-02-02T13:27:21.213Z,100192.63
2023-02-02T13:30:39.478Z,100207.03
2023-02-02T13:33:48.500Z,100188.81
2023-02-02T13:37:17.163Z,100196.59
2023-02-02T13:40:32.681Z,100203.22
2023-02-02T13:43:42.588Z,100203.06
2023-02-02T13:46:52.889Z,100212.25
2023-02-02T13:50:05.778Z,100200.38
2023-02-02T13:53:29.738Z,100211.00
2023-02-02T13:56:52.051Z,100204.66
2023-02-02T14:00:19.185Z,100209.97
2023-02-02T14:03:29.833Z,100200.53
2023-02-02T14:06:56.174Z,100206.03
2023-02-02T14:09:59.571Z,100213.81
2023-02-02T14:13:32.983Z,100217.72
2023-02-02T14:16:35.964Z,100216.84
2023-02-02T14:19:44.314Z,100209.13
2023-02-02T14:22:50.869Z,100197.94
2023-02-02T14:26:19.740Z,100209.56
2023-02-02T14:29:31.959Z,100210.56
2023-02-02T14:32:42.794Z,100222.75
2023-02-02T14:35:45.861Z,100223.94
2023-02-02T14:39:00.101Z,100226.31
2023-02-02T14:43:03.794Z,100221.84
2023-02-02T14:46:15.829Z,100213.09
2023-02-02T14:49:24.518Z,100221.84
2023-02-02T14:52:27.346Z,100219.97
2023-02-02T14:55:31.007Z,100228.00
2023-02-02T14:58:44.115Z,100225.09
2023-02-02T15:01:59.403Z,100225.41
2023-02-02T15:05:38.760Z,100225.09
2023-02-02T15:08:41.963Z,100236.72
2023-02-02T15:12:01.612Z,100238.16
2023-02-02T15:15:17.713Z,100241.03
2023-02-02T15:18:33.208Z,100245.88
2023-02-02T15:21:40.638Z,100260.25
2023-02-02T15:24:46.066Z,100255.06
2023-02-02T15:28:09.128Z,100254.53
2023-02-02T15:31:11.884Z,100257.41
2023-02-02T15:34:24.870Z,100257.94
2023-02-02T15:37:40.086Z,100272.72
2023-02-02T15:40:44.215Z,100276.22
2023-02-02T15:43:46.962Z,100287.47
2023-02-02T15:46:51.041Z,100298.34
2023-02-02T15:49:53.635Z,100293.72
2023-02-02T15:52:56.966Z,100293.97
2023-02-02T15:56:00.054Z,100302.97
2023-02-02T15:59:20.293Z,100299.81
2023-02-02T16:02:36.610Z,100304.66
2023-02-02T16:05:39.691Z,100303.34
2023-02-02T16:08:42.384Z,100308.47
2023-02-02T16:11:47.679Z,100311.50
2023-02-02T16:14:55.360Z,100317.38
2023-02-02T16:18:02.838Z,100324.09
2023-02-02T16:21:15.978Z,100310.97
2023-02-02T16:24:24.386Z,100326.81
2023-02-02T16:27:29.101Z,100323.00
2023-02-02T16:30:39.023Z,100331.44
2023-02-02T16:33:43.484Z,100330.56
2023-02-02T16:37:05.336Z,100331.13
2023-02-02T16:40:27.452Z,100344.66
2023-02-02T16:43:30.939Z,100349.25
2023-02-02T16:46:47.310Z,100347.72
2023-02-02T16:49:50.750Z,100356.22
2023-02-02T16:53:03.820Z,100360.72
2023-02-02T16:56:09.042Z,100367.34
2023-02-02T16:59:25.404Z,100370.69
2023-02-02T17:02:40.835Z,100378.12
2023-02-02T17:05:53.553Z,100383.03
2023-02-02T17:08:56.746Z,100383.94
2023-02-02T17:12:32.815Z,100388.59
2023-02-02T17:15:37.124Z,100394.91
2023-02-02T17:18:40.078Z,100399.37
2023-02-02T17:21:43.373Z,100396.72
2023-02-02T17:24:48.355Z,100403.84
2023-02-02T17:27:51.948Z,100416.09
2023-02-02T17:31:02.244Z,100406.09
2023-02-02T17:34:16.390Z,100406.97
2023-02-02T17:37:18.998Z,100414.22
2023-02-02T17:40:23.830Z,100423.22
2023-02-02T17:43:27.222Z,100434.41
2023-02-02T17:46:33.630Z,100424.84
2023-02-02T17:49:36.296Z,100429.81
2023-02-02T17:52:39.870Z,100422.63
2023-02-02T17:55:44.313Z,100430.47
2023-02-02T17:58:47.393Z,100438.38
2023-02-02T18:01:50.768Z,100448.03
2023-02-02T18:04:53.956Z,100441.16
2023-02-02T18:07:56.459Z,100443.41
2023-02-02T18:10:59.872Z,100440.34
2023-02-02T18:14:02.678Z,100438.03
2023-02-02T18:17:05.972Z,100431.97
2023-02-02T18:20:10.063Z,100431.16
2023-02-02T18:23:13.679Z,100439.97
2023-02-02T18:26:18.817Z,100452.97
2023-02-02T18:29:21.957Z,100468.25
2023-02-02T18:32:25.053Z,100481.97
2023-02-02T18:35:28.528Z,100494.16
2023-02-02T18:38:31.180Z,100499.62
2023-02-02T18:41:34.448Z,100507.72
2023-02-02T18:44:38.489Z,100503.28
2023-02-02T18:47:41.733Z,100505.44
2023-02-02T18:50:44.310Z,100507.91
2023-02-02T18:53:48.138Z,100502.22
2023-02-02T18:56:50.702Z,100503.12
2023-02-02T18:59:54.005Z,100505.25
2023-02-02T19:02:56.573Z,100498.91
2023-02-02T19:06:29.131Z,100501.16
2023-02-02T19:09:32.019Z,100507.91
2023-02-02T19:12:35.171Z,100507.91
2023-02-02T19:15:39.414Z,100517.59
2023-02-02T19:18:42.985Z,100529.53
2023-02-02T19:21:45.662Z,100527.69
2023-02-02T19:24:50.052Z,100511.34
2023-02-02T19:27:52.714Z,100504.59
2023-02-02T19:30:58.524Z,100514.22
2023-02-02T19:34:03.622Z,100517.63
2023-02-02T19:37:26.373Z,100527.97
2023-02-02T19:40:29.139Z,100529.56
2023-02-02T19:43:33.162Z,100525.00
2023-02-02T19:46:42.020Z,100531.38
2023-02-02T19:49:45.269Z,100531.87
2023-02-02T19:52:49.725Z,100538.75
2023-02-02T19:55:52.996Z,100536.34
2023-02-02T19:58:55.682Z,100546.91
2023-02-02T20:02:03.736Z,100556.63
2023-02-02T20:05:17.545Z,100561.59
2023-02-02T20:08:38.284Z,100577.09
2023-02-02T20:11:44.364Z,100573.53
2023-02-02T20:14:48.157Z,100586.88
2023-02-02T20:17:54.439Z,100584.72
2023-02-02T20:20:58.088Z,100591.16
2023-02-02T20:24:01.295Z,100598.59
2023-02-02T20:27:18.105Z,100597.31
2023-02-02T20:30:30.879Z,100597.22
2023-02-02T20:33:34.201Z,100604.09
2023-02-02T20:36:40.279Z,100599.81
2023-02-02T20:40:07.823Z,100609.41
2023-02-02T20:43:12.465Z,100622.06
2023-02-02T20:46:16.205Z,100630.69
2023-02-02T20:49:20.762Z,100631.38
2023-02-02T20:52:24.169Z,100631.22
2023-02-02T20:55:28.389Z,100636.84
2023-02-02T20:58:31.769Z,100644.50
2023-02-02T21:01:34.805Z,100646.87
2023-02-02T21:04:39.021Z,100655.94
2023-02-02T21:07:41.840Z,100652.56
2023-02-02T21:10:44.621Z,100667.53
2023-02-02T21:13:50.180Z,100668.47
2023-02-02T21:17:02.369Z,100670.31
2023-02-02T21:20:15.910Z,100663.38
2023-02-02T21:23:18.798Z,100657.41
2023-02-02T21:26:26.528Z,100655.03
2023-02-02T21:29:31.418Z,100664.37
2023-02-02T21:32:34.102Z,100652.75
2023-02-02T21:35:37.706Z,100660.59
2023-02-02T21:38:40.346Z,100661.78
2023-02-02T21:41:43.887Z,100665.84
2023-02-02T21:45:21.983Z,100672.50
2023-02-02T21:48:32.841Z,100682.97
2023-02-02T21:51:37.523Z,100679.88
2023-02-02T21:54:41.113Z,100691.59
2023-02-02T21:57:43.713Z,100697.53
2023-02-02T22:00:47.265Z,100699.34
2023-02-02T22:03:51.036Z,100707.75
2023-02-02T22:07:00.666Z,100703.31
2023-02-02T22:10:25.472Z,100698.34
2023-02-02T22:13:34.881Z,100699.22
2023-02-02T22:16:43.746Z,100712.63
2023-02-02T22:19:46.942Z,100712.53
2023-02-02T22:22:51.389Z,100729.56
2023-02-02T22:25:58.545Z,100727.31
2023-02-02T22:29:07.200Z,100736.22
2023-02-02T22:32:10.023Z,100745.78
2023-02-02T22:35:13.036Z,100743.81
2023-02-02T22:38:18.234Z,100744.78
2023-02-02T22:41:21.184Z,100747.38
2023-02-02T22:44:24.082Z,100757.31
2023-02-02T22:47:27.314Z,100752.16
2023-02-02T22:50:31.708Z,100747.59
2023-02-02T22:53:34.727Z,100765.56
2023-02-02T22:56:37.784Z,100773.53
2023-02-02T22:59:40.580Z,100767.16
2023-02-02T23:02:43.979Z,100778.41
2023-02-02T23:05:46.750Z,100796.44
2023-02-02T23:08:49.594Z,100791.75
2023-02-02T23:11:52.599Z,100801.31
2023-02-02T23:14:55.417Z,100803.34
2023-02-02T23:17:58.313Z,100819.94
2023-02-02T23:21:01.176Z,100818.47
2023-02-02T23:24:04.292Z,100811.38
2023-02-02T23:27:07.079Z,100830.50
2023-02-02T23:30:11.763Z,100822.03
2023-02-02T23:33:14.548Z,100820.31
2023-02-02T23:36:24.638Z,100827.28
2023-02-02T23:39:33.284Z,100824.94
2023-02-02T23:42:42.086Z,100837.50
2023-02-02T23:46:00.258Z,100835.34
2023-02-02T23:49:03.415Z,100845.16
2023-02-02T23:52:06.607Z,100840.53
2023-02-02T23:55:10.190Z,100849.09
2023-02-02T23:58:13.645Z,100853.44
